Terminal Aerodrome Forecast
Issued by NWS

Home | Current Version | Previous Version | Text Only | Print | Product List | Glossary On
Versions: 1 2 3 4 5 6 7 8 9 10 11 12 13 14 15 16 17 18 19 20 21 22 23 24 25 26
347
FTUS46 KSEW 141741
TAFSEA
TAF
KSEA 141741Z 1418/1524 17007KT 3SM -RA BR BKN006 OVC010
     FM142100 19011KT P6SM VCSH SCT008 OVC014
     FM150400 19018G30KT 6SM -RA BR OVC010
     FM151400 21014G22KT 4SM -RA BR OVC008
     FM152000 20014G22KT 6SM -RA BR OVC015=

USA.gov is the U.S. government's official web portal to all federal, state and local government web resources and services.